Time;durP1;ratioP1;P1;durP2;ratioP2;P2;SDS_P1;SDS_P2;PMS_P1;PMS_P2;Temp;Humidity;BMP_temperature;BMP_pressure;BME280_temperature;BME280_humidity;BME280_pressure;Samples;Min_cycle;Max_cycle;Signal;HPM_P1;HPM_P2
2021/10/09 00:00:51;;;;;;;;;;;7.20;99.90;;;6.03;100.00;96472.88;10573841;27;1843;-77
2021/10/09 00:05:54;;;;;;;;;;;7.20;99.90;;;6.04;100.00;96461.97;10569385;28;1871;-77
2021/10/09 00:10:57;;;;;;;;;;;7.20;99.90;;;6.05;100.00;96458.28;10549490;28;1855;-77
2021/10/09 00:16:00;;;;;;;;;;;7.20;99.90;;;6.06;100.00;96456.41;10562081;28;1926;-77
2021/10/09 00:21:03;;;;;;;;;;;7.20;99.90;;;6.02;100.00;96455.25;10567286;28;1944;-76
2021/10/09 00:26:06;;;;;;;;;;;7.20;99.90;;;6.03;100.00;96456.84;10566969;28;2002;-76
2021/10/09 00:31:09;;;;;;;;;;;7.20;99.90;;;6.01;100.00;96456.28;10571507;28;1906;-76
2021/10/09 00:36:12;;;;;;;;;;;7.10;99.90;;;6.03;100.00;96454.19;10560318;28;1957;-77
2021/10/09 00:41:14;;;;;;;;;;;7.20;99.90;;;6.01;100.00;96443.75;10573416;28;1611;-77
2021/10/09 00:46:17;;;;;;;;;;;7.20;99.90;;;5.99;100.00;96450.38;10557332;28;1851;-77
2021/10/09 00:51:20;;;;;;;;;;;7.10;99.90;;;5.99;100.00;96455.72;10565540;27;1925;-77
2021/10/09 00:56:23;;;;;;;;;;;7.10;99.90;;;5.96;100.00;96452.44;10563262;28;2144;-76
2021/10/09 01:01:26;;;;;;;;;;;7.10;99.90;;;6.03;100.00;96448.84;10567328;28;1890;-77
2021/10/09 01:06:29;;;;;;;;;;;7.10;99.90;;;6.00;100.00;96446.66;10565918;28;1993;-76
2021/10/09 01:11:32;;;;;;;;;;;7.10;99.90;;;5.91;100.00;96446.97;10569381;27;1983;-76
2021/10/09 01:16:35;;;;;;;;;;;7.10;99.90;;;5.85;100.00;96450.53;10548231;28;2071;-76
2021/10/09 01:21:58;;;;;;;;;;;7.00;99.90;;;5.85;100.00;96445.19;10556200;28;1990;-76
2021/10/09 01:27:21;;;;;;;;;;;7.00;99.90;;;5.77;100.00;96447.34;10560848;28;1951;-77
2021/10/09 01:32:23;;;;;;;;;;;7.00;99.90;;;5.79;100.00;96442.59;10572996;28;1930;-76
2021/10/09 01:37:26;;;;;;;;;;;7.00;99.90;;;5.77;100.00;96442.81;10568367;28;2060;-76
2021/10/09 01:42:29;;;;;;;;;;;6.90;99.90;;;5.68;100.00;96449.53;10577989;28;1963;-78
2021/10/09 01:47:32;;;;;;;;;;;6.90;99.90;;;5.67;100.00;96440.72;10553548;28;1909;-76
2021/10/09 01:52:35;;;;;;;;;;;6.90;99.90;;;5.70;100.00;96436.78;10569598;28;1907;-77
2021/10/09 01:57:38;;;;;;;;;;;6.90;99.90;;;5.59;100.00;96438.34;10548441;28;2012;-76
2021/10/09 02:02:40;;;;;;;;;;;6.90;99.90;;;5.64;100.00;96437.69;10566455;28;2050;-77
2021/10/09 02:07:43;;;;;;;;;;;6.80;99.90;;;5.65;100.00;96434.78;10562098;28;2304;-77
2021/10/09 02:12:46;;;;;;;;;;;6.90;99.90;;;5.60;100.00;96442.66;10567882;28;2022;-77
2021/10/09 02:18:24;;;;;;;;;;;6.80;99.90;;;5.59;100.00;96426.88;10564900;28;2070;-77
2021/10/09 02:28:47;;;;;;;;;;;6.80;99.90;;;5.60;100.00;96428.50;10564954;28;2039;-77
2021/10/09 02:33:50;;;;;;;;;;;6.80;99.90;;;5.60;100.00;96428.50;10574876;27;1963;-77
2021/10/09 02:38:53;;;;;;;;;;;6.80;99.90;;;5.58;100.00;96428.72;10577999;27;1976;-77
2021/10/09 02:43:56;;;;;;;;;;;6.80;99.90;;;5.57;100.00;96426.28;10569665;28;2027;-76
2021/10/09 02:48:59;;;;;;;;;;;6.80;99.90;;;5.49;100.00;96423.94;10567151;28;2103;-77
2021/10/09 02:54:02;;;;;;;;;;;6.70;99.90;;;5.50;100.00;96430.91;10549390;28;2079;-77
2021/10/09 02:59:04;;;;;;;;;;;6.70;99.90;;;5.45;100.00;96428.91;10566760;28;2008;-77
2021/10/09 03:04:07;;;;;;;;;;;6.60;99.90;;;5.38;100.00;96420.97;10576542;28;2040;-76
2021/10/09 03:09:10;;;;;;;;;;;6.60;99.90;;;5.36;100.00;96420.41;10569464;28;2132;-77
2021/10/09 03:14:13;;;;;;;;;;;6.60;99.90;;;5.34;100.00;96427.81;10564677;28;2095;-76
2021/10/09 03:19:16;;;;;;;;;;;6.60;99.90;;;5.34;100.00;96424.31;10569910;28;2007;-76
2021/10/09 03:24:19;;;;;;;;;;;6.50;99.90;;;5.31;100.00;96422.94;10575850;27;2015;-76
2021/10/09 03:29:22;;;;;;;;;;;6.50;99.90;;;5.26;100.00;96430.78;10567033;28;2055;-76
2021/10/09 03:34:25;;;;;;;;;;;6.50;99.90;;;5.31;100.00;96430.91;10570708;27;2019;-76
2021/10/09 03:39:27;;;;;;;;;;;6.50;99.90;;;5.27;100.00;96434.25;10571690;28;2031;-76
2021/10/09 03:44:35;;;;;;;;;;;6.50;99.90;;;5.18;100.00;96438.28;10568921;28;1976;-76
2021/10/09 03:49:45;;;;;;;;;;;6.40;99.90;;;5.12;100.00;96431.97;10574793;28;2122;-76
2021/10/09 03:54:48;;;;;;;;;;;6.40;99.90;;;5.16;100.00;96435.84;10572091;27;2055;-76
2021/10/09 03:59:51;;;;;;;;;;;6.40;99.90;;;5.19;100.00;96440.69;10544622;28;2037;-76
2021/10/09 04:04:54;;;;;;;;;;;6.40;99.90;;;5.09;100.00;96448.41;10569311;28;2031;-77
2021/10/09 04:09:57;;;;;;;;;;;6.30;99.90;;;5.05;100.00;96437.38;10574934;28;2216;-77
2021/10/09 04:15:00;;;;;;;;;;;6.30;99.90;;;5.02;100.00;96445.00;10574149;28;2091;-77
2021/10/09 04:20:02;;;;;;;;;;;6.30;99.90;;;4.95;100.00;96442.41;10559298;28;2092;-76
2021/10/09 04:25:06;;;;;;;;;;;6.20;99.90;;;4.89;100.00;96441.44;10590759;28;2090;-77
2021/10/09 04:30:09;;;;;;;;;;;6.10;99.90;;;4.89;100.00;96446.75;10590402;28;1944;-77
2021/10/09 04:35:12;;;;;;;;;;;6.10;99.90;;;4.89;100.00;96435.28;10573165;27;1988;-77
2021/10/09 04:40:15;;;;;;;;;;;6.10;99.90;;;4.85;100.00;96442.13;10594439;27;1984;-77
2021/10/09 04:45:17;;;;;;;;;;;6.00;99.90;;;4.78;100.00;96438.72;10597457;27;2016;-77
2021/10/09 04:50:20;;;;;;;;;;;5.90;99.90;;;4.71;100.00;96449.44;10591214;28;2055;-76
2021/10/09 04:55:23;;;;;;;;;;;5.90;99.90;;;4.70;100.00;96453.09;10575042;28;2058;-76
2021/10/09 05:00:26;;;;;;;;;;;5.90;99.90;;;4.75;100.00;96447.94;10595001;27;2121;-76
2021/10/09 05:05:29;;;;;;;;;;;5.90;99.90;;;4.80;100.00;96458.75;10593836;27;2126;-77
2021/10/09 05:10:32;;;;;;;;;;;5.90;99.90;;;4.67;100.00;96461.53;10594241;28;2074;-76
2021/10/09 05:15:39;;;;;;;;;;;;;;;4.69;100.00;96461.31;10592458;28;2090;-75
2021/10/09 05:20:42;;;;;;;;;;;5.80;99.90;;;4.79;100.00;96467.78;10568768;28;2034;-77
2021/10/09 05:25:45;;;;;;;;;;;5.90;99.90;;;4.79;100.00;96459.78;10584074;28;1972;-75
2021/10/09 05:30:58;;;;;;;;;;;6.10;99.90;;;4.80;100.00;96473.91;10581751;28;2005;-76
2021/10/09 05:36:01;;;;;;;;;;;5.60;99.90;;;4.93;100.00;96479.13;10568100;28;2013;-75
2021/10/09 05:41:04;;;;;;;;;;;5.70;99.90;;;5.12;100.00;96477.28;10561018;28;1909;-76
2021/10/09 05:46:07;;;;;;;;;;;;;;;5.21;100.00;96481.25;10575553;28;2085;-77
2021/10/09 05:51:14;;;;;;;;;;;6.20;99.90;;;5.35;100.00;96481.97;10549443;28;2114;-76
2021/10/09 05:56:25;;;;;;;;;;;6.40;99.90;;;5.40;100.00;96485.56;10560968;28;2146;-76
2021/10/09 06:44:33;;;;;;;;;;;7.00;99.90;;;5.91;100.00;96495.00;10569608;28;1992;-76
2021/10/09 07:00:24;;;;;;;;;;;7.00;99.90;;;6.06;100.00;96509.81;10513361;28;2016;-77
2021/10/09 07:05:27;;;;;;;;;;;7.10;99.90;;;6.28;100.00;96518.91;10571759;28;2117;-76
2021/10/09 07:10:30;;;;;;;;;;;7.20;99.90;;;6.41;100.00;96523.25;10573845;28;2030;-77
2021/10/09 07:15:33;;;;;;;;;;;7.30;99.90;;;6.43;100.00;96532.66;10570385;28;2066;-77
2021/10/09 07:20:37;;;;;;;;;;;7.30;99.90;;;6.64;100.00;96531.31;10553043;27;1868;-76
2021/10/09 07:25:40;;;;;;;;;;;7.50;99.90;;;6.65;100.00;96537.47;10573579;27;1910;-77
2021/10/09 07:30:43;;;;;;;;;;;7.60;99.90;;;6.48;100.00;96530.09;10566820;27;1989;-76
2021/10/09 07:35:46;;;;;;;;;;;7.40;99.90;;;6.62;100.00;96535.25;10548944;28;1924;-76
2021/10/09 07:40:49;;;;;;;;;;;7.50;99.90;;;6.62;100.00;96540.59;10568569;28;2028;-76
2021/10/09 07:45:52;;;;;;;;;;;7.60;99.90;;;6.65;100.00;96542.81;10567506;27;1916;-77
2021/10/09 07:50:56;;;;;;;;;;;7.70;99.90;;;6.94;100.00;96549.13;10572832;27;1898;-77
2021/10/09 07:55:59;;;;;;;;;;;7.80;99.90;;;6.83;100.00;96548.06;10567935;28;1976;-77
2021/10/09 08:01:01;;;;;;;;;;;7.90;99.90;;;6.71;100.00;96556.06;10559320;27;2056;-77
2021/10/09 08:06:04;;;;;;;;;;;7.70;99.90;;;7.17;100.00;96550.97;10587400;27;1927;-76
2021/10/09 08:11:07;;;;;;;;;;;7.90;99.90;;;6.92;100.00;96557.34;10569320;27;2000;-77
2021/10/09 08:16:10;;;;;;;;;;;8.00;99.90;;;7.52;100.00;96561.66;10578800;27;1988;-77
2021/10/09 08:21:13;;;;;;;;;;;8.20;99.90;;;7.69;100.00;96557.19;10584289;27;1917;-79
2021/10/09 08:37:17;;;;;;;;;;;8.50;99.90;;;7.13;100.00;96571.22;10565817;27;1965;-76
2021/10/09 08:42:21;;;;;;;;;;;8.40;99.90;;;7.42;100.00;96572.13;10552928;27;1876;-76
2021/10/09 08:47:24;;;;;;;;;;;8.30;99.90;;;7.34;100.00;96565.28;10566531;27;1929;-77
2021/10/09 08:52:29;;;;;;;;;;;8.40;99.90;;;7.48;100.00;96568.53;10565752;28;1986;-77
2021/10/09 08:57:32;;;;;;;;;;;8.40;99.90;;;7.46;99.57;96579.47;10559066;27;1967;-77
2021/10/09 09:02:38;;;;;;;;;;;8.40;99.90;;;7.90;96.24;96582.53;10572019;28;1898;-77
2021/10/09 09:34:59;;;;;;;;;;;9.80;99.90;;;7.83;96.24;96574.66;10546878;28;1900;-78
2021/10/09 09:40:02;;;;;;;;;;;9.50;99.90;;;7.84;97.32;96565.56;10556459;28;1992;-78
2021/10/09 09:45:06;;;;;;;;;;;9.00;99.90;;;7.82;96.41;96572.19;10556445;27;2027;-77
2021/10/09 09:50:09;;;;;;;;;;;8.90;99.90;;;8.23;94.96;96564.97;10567578;27;1884;-76
2021/10/09 09:55:12;;;;;;;;;;;9.00;99.90;;;8.30;93.51;96566.44;10564442;28;1964;-77
2021/10/09 10:00:15;;;;;;;;;;;9.30;99.90;;;8.32;93.28;96567.00;10550647;27;1981;-77
2021/10/09 10:05:18;;;;;;;;;;;9.50;99.90;;;8.08;95.22;96571.66;10580724;28;1491;-76
2021/10/09 10:10:21;;;;;;;;;;;9.30;99.90;;;8.18;94.40;96560.31;10577940;27;1763;-77
2021/10/09 10:15:24;;;;;;;;;;;9.20;99.90;;;8.64;93.80;96558.50;10571879;27;1814;-77
2021/10/09 10:20:26;;;;;;;;;;;9.40;99.90;;;9.89;86.52;96550.94;10575438;28;1967;-77
2021/10/09 10:25:29;;;;;;;;;;;10.30;99.90;;;8.95;90.24;96549.09;10579293;27;1905;-78
2021/10/09 10:30:32;;;;;;;;;;;10.30;99.90;;;8.98;85.89;96554.00;10564423;28;1882;-77
2021/10/09 10:35:35;;;;;;;;;;;10.10;99.90;;;9.47;85.54;96546.09;10595003;27;1930;-78
2021/10/09 10:40:38;;;;;;;;;;;10.30;99.90;;;9.64;81.54;96552.25;10601862;28;1402;-78
2021/10/09 10:45:41;;;;;;;;;;;10.70;99.90;;;9.38;80.61;96553.78;10610816;28;1669;-76
2021/10/09 10:50:47;;;;;;;;;;;10.50;99.90;;;9.33;80.26;96563.63;10610148;27;1386;-78
2021/10/09 10:55:50;;;;;;;;;;;10.40;99.90;;;9.83;78.76;96554.63;10605591;27;1953;-75
2021/10/09 11:00:53;;;;;;;;;;;10.60;99.90;;;9.78;76.83;96552.69;10575090;27;1842;-78
2021/10/09 11:05:56;;;;;;;;;;;10.80;99.90;;;10.16;76.51;96554.50;10595030;27;1802;-76
2021/10/09 11:10:59;;;;;;;;;;;11.00;99.90;;;10.50;74.95;96549.00;10592242;27;1905;-77
2021/10/09 11:16:03;;;;;;;;;;;11.30;99.90;;;10.37;74.95;96546.69;10585272;28;1957;-76
2021/10/09 11:21:06;;;;;;;;;;;11.50;99.90;;;10.50;75.95;96539.03;10589263;28;1886;-78
2021/10/09 11:26:09;;;;;;;;;;;11.50;99.90;;;10.34;74.73;96539.13;10614239;27;1710;-77
2021/10/09 11:31:12;;;;;;;;;;;11.50;99.90;;;10.43;75.22;96533.06;10587089;28;1870;-77
2021/10/09 11:36:15;;;;;;;;;;;11.40;99.90;;;10.50;76.48;96532.84;10570724;28;1910;-78
2021/10/09 11:41:20;;;;;;;;;;;11.50;99.90;;;10.37;73.75;96527.88;10575304;27;2066;-77
2021/10/09 11:46:28;;;;;;;;;;;11.50;99.90;;;10.51;74.74;96529.09;10553388;28;1851;-77
2021/10/09 11:57:03;;;;;;;;;;;11.60;99.90;;;10.78;74.30;96518.31;10473698;28;2021;-77
2021/10/09 12:02:07;;;;;;;;;;;11.80;99.90;;;10.88;75.37;96517.56;10571531;27;1910;-76
2021/10/09 12:07:10;;;;;;;;;;;11.90;99.90;;;11.04;73.47;96520.13;10564998;27;1744;-78
2021/10/09 12:12:13;;;;;;;;;;;12.10;99.90;;;10.94;73.39;96516.53;10564560;27;1870;-77
2021/10/09 12:17:16;;;;;;;;;;;12.00;99.90;;;11.16;72.84;96514.56;10559038;28;1937;-77
2021/10/09 12:22:19;;;;;;;;;;;12.10;99.90;;;11.21;72.15;96506.53;10565809;27;1918;-77
2021/10/09 12:27:22;;;;;;;;;;;12.20;99.90;;;11.29;72.50;96494.47;10541672;28;1840;-78
2021/10/09 12:32:25;;;;;;;;;;;12.30;99.90;;;11.51;71.58;96488.91;10553239;27;2127;-77
2021/10/09 12:37:29;;;;;;;;;;;12.40;99.90;;;11.44;71.16;96504.50;10562767;27;1910;-77
2021/10/09 12:42:32;;;;;;;;;;;12.50;99.90;;;11.61;69.62;96494.34;10566113;28;1890;-77
2021/10/09 12:47:34;;;;;;;;;;;12.50;99.90;;;11.75;65.46;96502.75;10549852;28;1860;-77
2021/10/09 12:52:37;;;;;;;;;;;12.70;99.90;;;11.69;64.53;96501.94;10569543;28;1815;-78
2021/10/09 12:57:40;;;;;;;;;;;12.80;99.90;;;11.66;64.33;96498.97;10571603;28;1981;-78
2021/10/09 13:02:43;;;;;;;;;;;12.70;99.90;;;11.59;64.28;96494.63;10571245;28;1902;-78
2021/10/09 13:07:46;;;;;;;;;;;12.60;99.90;;;11.86;64.48;96491.81;10559506;27;1879;-77
2021/10/09 13:12:49;;;;;;;;;;;12.70;99.90;;;11.98;63.53;96490.78;10571617;27;1815;-77
2021/10/09 13:17:52;;;;;;;;;;;13.00;99.90;;;11.94;63.04;96484.28;10558872;28;1984;-77
2021/10/09 13:22:55;;;;;;;;;;;13.00;99.90;;;11.94;61.62;96478.91;10542840;28;1928;-77
2021/10/09 13:28:05;;;;;;;;;;;12.90;99.90;;;11.86;62.82;96475.63;10558973;28;1870;-78
2021/10/09 13:33:08;;;;;;;;;;;12.90;99.90;;;11.86;63.25;96481.03;10547702;28;1931;-77
2021/10/09 13:38:13;;;;;;;;;;;12.90;99.90;;;11.92;61.97;96481.06;10561162;28;1905;-77
2021/10/09 13:43:16;;;;;;;;;;;12.90;99.90;;;11.94;60.51;96470.81;10570652;27;1839;-77
2021/10/09 13:48:19;;;;;;;;;;;12.90;99.90;;;11.89;61.97;96472.41;10579473;28;1860;-78
2021/10/09 13:53:21;;;;;;;;;;;12.90;99.90;;;11.94;61.12;96482.38;10555540;28;1857;-77
2021/10/09 13:58:25;;;;;;;;;;;12.90;99.90;;;11.87;61.70;96474.56;10568530;28;1949;-76
2021/10/09 14:03:30;;;;;;;;;;;12.90;99.90;;;11.81;63.66;96472.91;10572387;28;1831;-78
2021/10/09 14:08:33;;;;;;;;;;;12.90;99.90;;;11.90;64.19;96471.34;10570986;28;1922;-76
2021/10/09 14:13:36;;;;;;;;;;;12.90;99.90;;;11.83;64.17;96480.72;10573343;28;1933;-78
2021/10/09 14:18:39;;;;;;;;;;;12.90;99.90;;;11.73;64.89;96469.91;10571584;28;2005;-77
2021/10/09 14:23:42;;;;;;;;;;;12.80;99.90;;;11.86;63.96;96481.03;10570967;28;1950;-78
2021/10/09 14:28:45;;;;;;;;;;;12.80;99.90;;;11.77;62.48;96471.81;10582749;27;1914;-77
2021/10/09 14:33:48;;;;;;;;;;;12.80;99.90;;;11.73;63.37;96476.09;10563230;27;1886;-77
2021/10/09 14:38:50;;;;;;;;;;;12.80;99.90;;;11.80;64.60;96471.28;10577547;28;2005;-77
2021/10/09 14:43:53;;;;;;;;;;;12.80;99.90;;;11.78;65.68;96475.31;10555552;27;1818;-76
2021/10/09 14:48:59;;;;;;;;;;;12.80;99.90;;;11.74;65.90;96472.31;10573646;28;1784;-77
2021/10/09 14:54:29;;;;;;;;;;;12.80;99.90;;;11.65;66.40;96479.31;10569810;28;1910;-76
2021/10/09 15:20:54;;;;;;;;;;;12.60;99.90;;;11.54;67.84;96483.81;10565560;28;1890;-78
2021/10/09 15:25:57;;;;;;;;;;;12.60;99.90;;;11.50;68.16;96479.22;10576592;28;1799;-78
2021/10/09 15:31:00;;;;;;;;;;;12.60;99.90;;;11.41;68.75;96475.41;10578547;28;1870;-77
2021/10/09 15:36:03;;;;;;;;;;;12.50;99.90;;;11.26;68.36;96476.13;10583347;27;1895;-77
2021/10/09 15:41:06;;;;;;;;;;;12.40;99.90;;;11.11;69.03;96476.84;10574820;28;1929;-77
2021/10/09 15:46:09;;;;;;;;;;;12.30;99.90;;;11.03;68.64;96482.72;10582165;28;1921;-77
2021/10/09 15:51:12;;;;;;;;;;;12.20;99.90;;;11.01;69.05;96487.56;10586807;27;1922;-77
2021/10/09 15:56:16;;;;;;;;;;;12.10;99.90;;;10.96;69.30;96487.53;10573366;27;1973;-77
2021/10/09 16:01:20;;;;;;;;;;;12.10;99.90;;;10.77;71.32;96485.22;10581271;28;1960;-77
2021/10/09 16:06:23;;;;;;;;;;;12.00;99.90;;;10.66;71.86;96488.91;10583893;28;1859;-77
2021/10/09 16:11:27;;;;;;;;;;;11.90;99.90;;;10.61;71.96;96491.53;10561448;28;1922;-77
2021/10/09 16:16:32;;;;;;;;;;;11.80;99.90;;;10.49;72.42;96491.69;10551512;28;1839;-78
2021/10/09 16:21:35;;;;;;;;;;;11.70;99.90;;;10.43;72.15;96491.91;10574713;28;1914;-78
2021/10/09 16:26:38;;;;;;;;;;;11.60;99.90;;;10.21;73.59;96503.50;10590227;28;1881;-78
2021/10/09 16:31:41;;;;;;;;;;;11.50;99.90;;;10.14;74.04;96499.41;10559354;28;1902;-77
2021/10/09 16:36:44;;;;;;;;;;;11.30;99.90;;;9.87;75.61;96502.06;10560484;28;1819;-77
2021/10/09 16:41:49;;;;;;;;;;;11.20;99.90;;;9.82;76.05;96513.56;10573200;28;1975;-79
2021/10/09 16:46:56;;;;;;;;;;;11.00;99.90;;;9.63;77.26;96507.69;10574618;27;1847;-78
2021/10/09 16:52:00;;;;;;;;;;;10.90;99.90;;;9.58;77.99;96521.03;10568700;28;1823;-80
2021/10/09 16:57:02;;;;;;;;;;;10.80;99.90;;;9.40;80.10;96529.38;10574219;28;1828;-79
2021/10/09 17:02:11;;;;;;;;;;;10.70;99.90;;;9.21;81.29;96529.66;10576747;28;1905;-78
2021/10/09 17:07:14;;;;;;;;;;;10.50;99.90;;;8.99;82.93;96528.78;10593320;28;1756;-79
2021/10/09 17:12:17;;;;;;;;;;;10.40;99.90;;;8.92;83.89;96533.50;10591312;28;1909;-78
2021/10/09 17:17:20;;;;;;;;;;;10.20;99.90;;;8.73;85.38;96540.16;10597053;28;1943;-78
2021/10/09 17:22:23;;;;;;;;;;;10.10;99.90;;;8.66;85.98;96546.50;10594234;28;1838;-78
2021/10/09 17:27:26;;;;;;;;;;;10.00;99.90;;;8.63;87.10;96552.31;10588577;28;1928;-77
2021/10/09 17:32:28;;;;;;;;;;;9.90;99.90;;;8.45;88.34;96549.84;10577376;28;1914;-78
2021/10/09 17:37:31;;;;;;;;;;;9.80;99.90;;;8.36;89.48;96552.13;10574734;28;1918;-80
2021/10/09 17:42:34;;;;;;;;;;;9.70;99.90;;;8.36;89.45;96544.09;10568261;28;1875;-77
2021/10/09 17:47:37;;;;;;;;;;;9.70;99.90;;;8.25;90.47;96550.28;10552458;28;2016;-77
2021/10/09 17:52:40;;;;;;;;;;;9.60;99.90;;;8.22;91.19;96548.09;10567903;28;1886;-76
2021/10/09 17:57:43;;;;;;;;;;;9.50;99.90;;;8.03;92.78;96558.16;10571309;28;1949;-77
2021/10/09 18:02:46;;;;;;;;;;;9.40;99.90;;;7.86;94.81;96552.75;10582883;28;1925;-78
2021/10/09 18:07:49;;;;;;;;;;;9.30;99.90;;;7.78;95.83;96550.44;10561060;28;1790;-78
2021/10/09 18:12:52;;;;;;;;;;;9.20;99.90;;;8.02;93.86;96553.88;10555886;28;1922;-79
2021/10/09 18:17:55;;;;;;;;;;;9.20;99.90;;;7.81;94.55;96554.50;10576630;28;1971;-77
2021/10/09 18:23:14;;;;;;;;;;;9.20;99.90;;;7.91;94.81;96562.75;10576700;27;1913;-78
2021/10/09 18:28:17;;;;;;;;;;;9.10;99.90;;;7.83;94.67;96558.59;10580086;28;1906;-77
2021/10/09 18:33:20;;;;;;;;;;;9.10;99.90;;;7.69;96.08;96559.88;10580123;27;1842;-78
2021/10/09 18:38:23;;;;;;;;;;;9.00;99.90;;;7.64;97.57;96564.34;10578613;27;1955;-78
2021/10/09 18:43:26;;;;;;;;;;;8.90;99.90;;;7.47;99.27;96565.03;10575518;27;1395;-77
2021/10/09 18:48:29;;;;;;;;;;;8.80;99.90;;;7.38;100.00;96563.78;10556846;28;1485;-76
2021/10/09 18:53:31;;;;;;;;;;;8.70;99.90;;;7.39;99.88;96554.69;10578483;28;1471;-77
2021/10/09 18:58:36;;;;;;;;;;;8.60;99.90;;;7.41;100.00;96549.91;10573182;27;1977;-76
2021/10/09 19:03:39;;;;;;;;;;;8.60;99.90;;;7.47;99.94;96558.88;10571115;28;1933;-77
2021/10/09 19:08:45;;;;;;;;;;;8.60;99.90;;;7.43;99.14;96560.38;10567956;28;1910;-77
2021/10/09 19:13:49;;;;;;;;;;;8.60;99.90;;;7.30;99.50;96556.91;10575662;28;1948;-75
2021/10/09 19:18:52;;;;;;;;;;;8.60;99.90;;;7.23;99.28;96558.06;10574589;27;1914;-76
2021/10/09 19:23:55;;;;;;;;;;;8.50;99.90;;;7.14;100.00;96560.28;10575730;28;2000;-76
2021/10/09 19:28:58;;;;;;;;;;;8.40;99.90;;;7.08;99.89;96565.75;10571917;28;1923;-76
2021/10/09 19:34:06;;;;;;;;;;;8.40;99.90;;;6.98;99.81;96572.47;10574208;27;1840;-77
2021/10/09 19:39:09;;;;;;;;;;;8.20;99.90;;;7.11;98.27;96570.63;10568147;28;1913;-77
2021/10/09 19:44:11;;;;;;;;;;;8.10;99.90;;;6.91;99.62;96587.00;10574389;28;2043;-77
2021/10/09 19:49:15;;;;;;;;;;;8.10;99.90;;;6.80;99.99;96571.75;10568615;28;1839;-76
2021/10/09 19:54:29;;;;;;;;;;;8.10;99.90;;;6.80;98.92;96575.22;10568150;28;1949;-76
2021/10/09 19:59:33;;;;;;;;;;;8.00;99.90;;;6.77;98.07;96584.53;10569431;28;2192;-78
2021/10/09 20:04:36;;;;;;;;;;;7.90;99.90;;;6.72;98.33;96583.59;10569346;28;2272;-78
2021/10/09 20:09:44;;;;;;;;;;;7.90;99.90;;;6.65;97.64;96593.56;10570026;28;2157;-78
2021/10/09 20:14:47;;;;;;;;;;;7.90;99.90;;;6.53;97.67;96592.72;10577297;27;1862;-77
2021/10/09 20:19:49;;;;;;;;;;;7.80;99.90;;;6.53;96.59;96590.03;10570904;28;1914;-79
2021/10/09 20:24:52;;;;;;;;;;;7.70;99.90;;;6.45;96.35;96589.31;10583670;28;1827;-78
2021/10/09 20:29:55;;;;;;;;;;;7.70;99.90;;;6.45;96.20;96592.00;10552725;28;1855;-78
2021/10/09 20:34:58;;;;;;;;;;;7.60;99.90;;;6.36;96.14;96584.53;10571482;27;1712;-77
2021/10/09 20:40:01;;;;;;;;;;;7.60;99.90;;;6.17;97.59;96594.44;10564387;28;2051;-78
2021/10/09 20:45:08;;;;;;;;;;;7.50;99.90;;;6.16;97.94;96584.78;10553791;27;1966;-76
2021/10/09 20:50:11;;;;;;;;;;;7.40;99.90;;;6.07;97.58;96588.81;10567630;27;1752;-76
2021/10/09 20:55:14;;;;;;;;;;;7.30;99.90;;;6.07;97.55;96591.50;10572538;27;1941;-78
2021/10/09 21:00:17;;;;;;;;;;;7.30;99.90;;;6.01;97.54;96592.41;10563740;28;1917;-77
2021/10/09 21:05:20;;;;;;;;;;;7.20;99.90;;;5.80;98.43;96586.47;10556914;28;1863;-78
2021/10/09 21:10:28;;;;;;;;;;;7.10;99.90;;;5.84;98.07;96587.63;10556677;27;1890;-78
2021/10/09 21:26:12;;;;;;;;;;;7.00;99.90;;;5.71;98.77;96561.09;10561565;28;1698;-77
2021/10/09 21:31:15;;;;;;;;;;;6.90;99.90;;;5.65;97.92;96568.13;10568703;28;1819;-76
2021/10/09 21:36:21;;;;;;;;;;;6.90;99.90;;;5.57;98.56;96573.78;10560890;28;1874;-77
2021/10/09 21:41:42;;;;;;;;;;;6.90;99.90;;;5.56;98.38;96564.16;10577747;28;1913;-77
2021/10/09 21:46:44;;;;;;;;;;;6.80;99.90;;;5.46;98.80;96565.69;10570136;28;1973;-77
2021/10/09 21:51:47;;;;;;;;;;;6.70;99.90;;;5.41;99.12;96572.53;10547263;28;1808;-77
2021/10/09 21:56:54;;;;;;;;;;;6.70;99.90;;;5.32;99.16;96562.34;10563446;28;1986;-76
2021/10/09 22:02:02;;;;;;;;;;;6.60;99.90;;;5.29;99.64;96565.47;10568866;28;1977;-77
2021/10/09 22:07:16;;;;;;;;;;;6.50;99.90;;;5.26;99.39;96561.38;10560308;28;1934;-77
2021/10/09 22:17:40;;;;;;;;;;;6.50;99.90;;;5.14;100.00;96555.16;10565242;28;1917;-76
2021/10/09 22:33:29;;;;;;;;;;;6.30;99.90;;;4.97;100.00;96544.25;10618981;28;1712;-76
2021/10/09 22:38:31;;;;;;;;;;;6.30;99.90;;;4.92;100.00;96546.75;10616721;28;1578;-77
2021/10/09 22:43:37;;;;;;;;;;;6.20;99.90;;;4.87;100.00;96544.75;10610467;27;1957;-78
2021/10/09 22:48:39;;;;;;;;;;;6.10;99.90;;;4.96;100.00;96541.78;10598712;27;1965;-77
2021/10/09 22:53:42;;;;;;;;;;;6.10;99.90;;;4.97;100.00;96540.78;10575430;28;1881;-77
2021/10/09 22:58:45;;;;;;;;;;;6.20;99.90;;;4.95;100.00;96534.84;10560840;28;1914;-76
2021/10/09 23:03:48;;;;;;;;;;;6.20;99.90;;;4.86;100.00;96536.97;10563001;27;1819;-77
2021/10/09 23:08:51;;;;;;;;;;;6.10;99.90;;;4.75;100.00;96535.84;10588287;27;1487;-76
2021/10/09 23:13:54;;;;;;;;;;;6.00;99.90;;;4.70;100.00;96535.66;10621743;27;1721;-77
2021/10/09 23:18:56;;;;;;;;;;;6.00;99.90;;;4.69;100.00;96536.69;10610078;28;1977;-76
2021/10/09 23:23:59;;;;;;;;;;;5.90;99.90;;;4.69;100.00;96526.06;10593274;27;1914;-77
2021/10/09 23:29:02;;;;;;;;;;;5.90;99.90;;;4.64;100.00;96536.53;10560538;28;1836;-77
2021/10/09 23:34:05;;;;;;;;;;;5.90;99.90;;;4.55;100.00;96525.34;10566616;27;1631;-77
2021/10/09 23:39:08;;;;;;;;;;;5.80;99.90;;;4.55;100.00;96519.22;10571204;28;1905;-77
2021/10/09 23:44:11;;;;;;;;;;;5.80;99.90;;;4.66;100.00;96518.50;10570957;28;1361;-76
2021/10/09 23:49:14;;;;;;;;;;;5.80;99.90;;;4.55;100.00;96513.88;10571063;28;1879;-77
2021/10/09 23:54:16;;;;;;;;;;;5.80;99.90;;;4.44;100.00;96517.25;10569185;28;1862;-77
2021/10/09 23:59:19;;;;;;;;;;;5.70;99.90;;;4.35;100.00;96508.72;10549479;28;2008;-77
